Time;durP1;ratioP1;P1;durP2;ratioP2;P2;SDS_P1;SDS_P2;PMS_P1;PMS_P2;Temp;Humidity;BMP_temperature;BMP_pressure;BME280_temperature;BME280_humidity;BME280_pressure;Samples;Min_cycle;Max_cycle;Signal;HPM_P1;HPM_P2
2021/11/16 00:01:26;;;;;;;25.73;12.33;;;4.20;99.90;;;;;;4969822;28;20598;-61
2021/11/16 00:03:54;;;;;;;23.80;10.67;;;4.20;99.90;;;;;;4968172;28;20198;-60
2021/11/16 00:06:21;;;;;;;20.07;10.50;;;4.20;99.90;;;;;;4969518;28;20484;-60
2021/11/16 00:08:47;;;;;;;26.60;10.73;;;4.20;99.90;;;;;;4968600;28;20449;-60
2021/11/16 00:11:13;;;;;;;25.53;11.60;;;4.20;99.90;;;;;;4970474;28;20432;-60
2021/11/16 00:13:39;;;;;;;23.73;10.10;;;4.20;99.90;;;;;;4969872;28;20703;-60
2021/11/16 00:16:05;;;;;;;20.43;10.70;;;4.20;99.90;;;;;;4970347;28;20430;-60
2021/11/16 00:18:31;;;;;;;21.20;9.97;;;4.20;99.90;;;;;;4972074;28;20451;-60
2021/11/16 00:20:58;;;;;;;24.23;11.50;;;4.20;99.90;;;;;;4971393;28;20433;-61
2021/11/16 00:23:32;;;;;;;26.20;12.07;;;4.20;99.90;;;;;;4968392;28;20931;-59
2021/11/16 00:25:58;;;;;;;23.00;10.30;;;4.20;99.90;;;;;;4971856;28;20774;-60
2021/11/16 00:28:24;;;;;;;22.20;10.30;;;4.20;99.90;;;;;;4972622;28;20445;-60
2021/11/16 00:30:52;;;;;;;23.10;10.30;;;4.20;99.90;;;;;;4970739;28;20529;-61
2021/11/16 00:33:20;;;;;;;25.00;10.90;;;4.20;99.90;;;;;;4967427;28;20810;-61
2021/11/16 00:35:46;;;;;;;23.17;10.10;;;4.20;99.90;;;;;;4971023;28;20429;-60
2021/11/16 00:38:14;;;;;;;22.50;10.20;;;4.20;99.90;;;;;;4970156;28;20429;-59
2021/11/16 00:40:41;;;;;;;22.53;10.30;;;4.10;99.90;;;;;;4970809;28;20206;-61
2021/11/16 00:43:08;;;;;;;18.83;9.83;;;4.10;99.90;;;;;;4969634;28;20462;-61
2021/11/16 00:45:39;;;;;;;18.37;9.30;;;4.10;99.90;;;;;;4974168;28;20413;-61
2021/11/16 00:48:05;;;;;;;27.13;12.23;;;4.10;99.90;;;;;;4983084;28;20417;-60
2021/11/16 00:50:32;;;;;;;21.67;10.67;;;4.10;99.90;;;;;;4987650;28;20428;-60
2021/11/16 00:52:58;;;;;;;20.80;10.67;;;4.10;99.90;;;;;;4968968;28;20627;-59
2021/11/16 00:55:24;;;;;;;23.63;11.77;;;4.10;99.90;;;;;;4967937;28;20534;-61
2021/11/16 00:57:50;;;;;;;21.83;10.70;;;4.10;99.90;;;;;;4970058;28;20583;-59
2021/11/16 01:00:17;;;;;;;21.30;10.40;;;4.10;99.90;;;;;;4971378;28;20248;-61
2021/11/16 01:02:45;;;;;;;24.63;10.97;;;4.10;99.90;;;;;;4971178;28;20180;-60
2021/11/16 01:05:14;;;;;;;27.10;11.77;;;4.10;99.90;;;;;;4971392;28;20430;-59
2021/11/16 01:07:42;;;;;;;23.83;11.00;;;4.10;99.90;;;;;;4970421;28;20532;-61
2021/11/16 01:10:15;;;;;;;23.93;11.10;;;4.10;99.90;;;;;;4969972;28;20463;-59
2021/11/16 01:12:41;;;;;;;22.37;10.40;;;4.10;99.90;;;;;;4969385;28;20433;-60
2021/11/16 01:15:08;;;;;;;21.63;9.83;;;4.00;99.90;;;;;;4968711;28;20417;-60
2021/11/16 01:17:34;;;;;;;18.20;9.77;;;4.10;99.90;;;;;;4971094;28;20421;-60
2021/11/16 01:20:00;;;;;;;15.60;8.60;;;4.10;99.90;;;;;;4967135;28;20476;-60
2021/11/16 01:22:26;;;;;;;18.50;9.10;;;4.10;99.90;;;;;;4969392;28;20209;-60
2021/11/16 01:24:52;;;;;;;20.40;9.43;;;4.10;99.90;;;;;;4967299;28;20936;-60
2021/11/16 01:27:20;;;;;;;18.00;8.97;;;4.10;99.90;;;;;;4970904;28;20411;-61
2021/11/16 01:29:49;;;;;;;16.83;9.43;;;4.10;99.90;;;;;;4968203;28;20957;-61
2021/11/16 01:32:30;;;;;;;21.70;9.97;;;4.10;99.90;;;;;;4964925;28;20752;-61
2021/11/16 01:34:56;;;;;;;18.80;8.87;;;4.10;99.90;;;;;;4968026;28;20532;-60
2021/11/16 01:37:22;;;;;;;20.57;8.90;;;4.10;99.90;;;;;;4966603;28;20448;-59
2021/11/16 01:39:50;;;;;;;18.80;9.47;;;4.10;99.90;;;;;;4968543;28;20591;-60
2021/11/16 01:42:16;;;;;;;19.57;9.37;;;4.10;99.90;;;;;;4968787;28;20421;-60
2021/11/16 01:44:42;;;;;;;19.57;9.40;;;4.10;99.90;;;;;;4968493;28;20479;-58
2021/11/16 01:47:08;;;;;;;17.20;8.30;;;4.10;99.90;;;;;;4967632;28;20432;-60
2021/11/16 01:49:34;;;;;;;19.20;8.30;;;4.10;99.90;;;;;;4972009;28;20664;-60
2021/11/16 01:52:00;;;;;;;17.00;9.00;;;4.00;99.90;;;;;;4967299;28;20437;-61
2021/11/16 01:54:25;;;;;;;16.07;8.30;;;4.00;99.90;;;;;;4965594;28;20869;-58
2021/11/16 01:56:51;;;;;;;17.30;8.20;;;4.00;99.90;;;;;;4968502;28;20202;-60
2021/11/16 01:59:19;;;;;;;15.07;8.60;;;4.00;99.90;;;;;;4971374;28;20217;-58
2021/11/16 02:01:47;;;;;;;19.93;9.50;;;3.90;99.90;;;;;;4967549;28;20178;-60
2021/11/16 02:04:13;;;;;;;16.23;8.93;;;3.90;99.90;;;;;;4968523;28;20435;-60
2021/11/16 02:06:40;;;;;;;19.33;9.03;;;3.90;99.90;;;;;;4967720;28;20437;-59
2021/11/16 02:09:10;;;;;;;18.00;8.60;;;3.90;99.90;;;;;;4968540;28;20464;-61
2021/11/16 02:11:36;;;;;;;18.30;8.50;;;3.90;99.90;;;;;;4963306;28;20688;-59
2021/11/16 02:14:06;;;;;;;20.70;8.30;;;3.90;99.90;;;;;;4970546;28;20463;-59
2021/11/16 02:16:36;;;;;;;15.80;8.40;;;3.90;99.90;;;;;;4962434;28;20444;-59
2021/11/16 02:19:03;;;;;;;15.30;7.73;;;3.90;99.90;;;;;;4969174;28;20461;-59
2021/11/16 02:21:29;;;;;;;19.23;7.60;;;3.90;99.90;;;;;;4967952;28;20428;-60
2021/11/16 02:23:56;;;;;;;18.97;8.10;;;3.90;99.90;;;;;;4966796;28;21010;-60
2021/11/16 02:26:22;;;;;;;16.97;7.67;;;3.90;99.90;;;;;;4969586;28;20177;-60
2021/11/16 02:28:48;;;;;;;18.50;8.30;;;3.90;99.90;;;;;;4969171;28;20745;-60
2021/11/16 02:31:15;;;;;;;13.97;7.20;;;3.90;99.90;;;;;;4967726;28;21116;-60
2021/11/16 02:33:41;;;;;;;16.57;7.93;;;3.90;99.90;;;;;;4968307;28;20476;-60
2021/11/16 02:36:07;;;;;;;17.17;8.37;;;3.90;99.90;;;;;;4968526;28;20695;-60
2021/11/16 02:38:35;;;;;;;17.13;8.93;;;3.90;99.90;;;;;;4967286;28;20445;-60
2021/11/16 02:41:02;;;;;;;15.63;7.80;;;4.00;99.90;;;;;;4963346;28;20429;-61
2021/11/16 02:43:29;;;;;;;15.47;8.20;;;3.90;99.90;;;;;;4967641;28;20472;-59
2021/11/16 02:45:55;;;;;;;17.57;7.67;;;3.90;99.90;;;;;;4965615;28;20794;-60
2021/11/16 02:48:21;;;;;;;16.07;8.40;;;3.90;99.90;;;;;;4967495;28;20420;-60
2021/11/16 02:50:55;;;;;;;15.83;8.37;;;3.90;99.90;;;;;;4964864;28;20433;-60
2021/11/16 02:53:21;;;;;;;14.40;7.20;;;3.90;99.90;;;;;;4961666;28;20188;-59
2021/11/16 02:55:47;;;;;;;16.70;7.87;;;3.90;99.90;;;;;;4963701;28;20503;-60
2021/11/16 02:58:15;;;;;;;18.30;8.77;;;3.90;99.90;;;;;;4968006;28;20892;-60
2021/11/16 03:00:50;;;;;;;14.77;7.13;;;3.90;99.90;;;;;;4969029;28;20702;-60
2021/11/16 03:03:16;;;;;;;15.93;7.30;;;3.90;99.90;;;;;;4962737;28;20486;-61
2021/11/16 03:05:42;;;;;;;13.43;7.17;;;3.90;99.90;;;;;;4969399;28;20491;-60
2021/11/16 03:08:22;;;;;;;13.20;6.33;;;3.90;99.90;;;;;;4965136;28;20429;-59
2021/11/16 03:10:51;;;;;;;16.13;7.50;;;3.90;99.90;;;;;;4966571;28;20522;-61
2021/11/16 03:13:17;;;;;;;15.90;7.63;;;3.90;99.90;;;;;;4969552;28;20472;-61
2021/11/16 03:15:43;;;;;;;14.53;7.23;;;3.80;99.90;;;;;;4967133;28;20439;-61
2021/11/16 03:18:09;;;;;;;16.07;7.63;;;3.90;99.90;;;;;;4965087;28;20425;-60
2021/11/16 03:20:36;;;;;;;16.00;7.83;;;3.90;99.90;;;;;;4967153;28;20460;-60
2021/11/16 03:23:10;;;;;;;15.80;7.37;;;3.90;99.90;;;;;;4966904;28;20429;-60
2021/11/16 03:25:41;;;;;;;18.50;7.77;;;3.90;99.90;;;;;;4966021;28;20393;-58
2021/11/16 03:28:10;;;;;;;14.87;7.67;;;3.90;99.90;;;;;;4966563;28;20421;-59
2021/11/16 03:30:36;;;;;;;13.30;7.23;;;3.90;99.90;;;;;;4967337;28;20441;-59
2021/11/16 03:33:04;;;;;;;12.27;6.83;;;3.90;99.90;;;;;;4968263;28;20429;-60
2021/11/16 03:35:30;;;;;;;11.90;6.40;;;3.80;99.90;;;;;;4963931;28;20790;-59
2021/11/16 03:37:58;;;;;;;13.20;6.03;;;3.90;99.90;;;;;;4967360;28;20426;-59
2021/11/16 03:40:26;;;;;;;11.67;6.63;;;3.90;99.90;;;;;;4968650;28;20464;-61
2021/11/16 03:42:53;;;;;;;12.00;6.73;;;3.90;99.90;;;;;;4966832;28;20414;-60
2021/11/16 03:45:23;;;;;;;13.27;5.73;;;3.80;99.90;;;;;;4968678;28;20576;-61
2021/11/16 03:47:50;;;;;;;11.23;5.90;;;3.80;99.90;;;;;;4977972;28;20424;-60
2021/11/16 03:50:20;;;;;;;10.50;5.73;;;3.80;99.90;;;;;;4974444;28;20960;-59
2021/11/16 03:52:52;;;;;;;13.07;6.43;;;3.80;99.90;;;;;;4979834;28;20440;-60
2021/11/16 03:55:19;;;;;;;8.60;5.43;;;3.80;99.90;;;;;;4990326;28;20408;-60
2021/11/16 03:57:45;;;;;;;10.50;5.50;;;3.80;99.90;;;;;;4976855;28;20416;-60
2021/11/16 04:00:19;;;;;;;9.93;5.73;;;3.80;99.90;;;;;;4990787;28;20474;-59
2021/11/16 04:02:45;;;;;;;14.77;6.40;;;3.80;99.90;;;;;;4968037;28;20428;-60
2021/11/16 04:05:12;;;;;;;13.20;6.43;;;3.80;99.90;;;;;;4969217;28;20794;-59
2021/11/16 04:07:40;;;;;;;9.33;5.60;;;3.80;99.90;;;;;;4976404;28;20511;-60
2021/11/16 04:10:11;;;;;;;12.70;6.80;;;3.80;99.90;;;;;;4983294;28;20457;-60
2021/11/16 04:12:37;;;;;;;10.30;5.87;;;3.80;99.90;;;;;;4977345;28;20440;-60
2021/11/16 04:15:04;;;;;;;13.93;6.10;;;3.80;99.90;;;;;;4984682;28;20421;-59
2021/11/16 04:17:32;;;;;;;13.63;7.23;;;3.80;99.90;;;;;;4980258;28;20417;-59
2021/11/16 04:19:59;;;;;;;13.37;6.03;;;3.80;99.90;;;;;;4972064;28;20987;-59
2021/11/16 04:22:26;;;;;;;11.33;6.03;;;3.80;99.90;;;;;;4967634;28;20435;-59
2021/11/16 04:24:51;;;;;;;13.10;6.40;;;3.80;99.90;;;;;;4968317;28;20982;-60
2021/11/16 04:27:17;;;;;;;9.73;5.57;;;3.80;99.90;;;;;;4970380;28;20513;-59
2021/11/16 04:29:43;;;;;;;11.63;6.07;;;3.80;99.90;;;;;;4971608;28;20685;-58
2021/11/16 04:32:09;;;;;;;9.50;5.43;;;3.80;99.90;;;;;;4981531;28;20236;-59
2021/11/16 04:34:34;;;;;;;10.70;6.00;;;3.80;99.90;;;;;;4981769;28;20417;-60
2021/11/16 04:37:00;;;;;;;9.30;5.40;;;3.80;99.90;;;;;;4976652;28;20186;-59
2021/11/16 04:39:26;;;;;;;9.13;5.37;;;3.80;99.90;;;;;;4966464;28;20268;-60
2021/11/16 04:41:52;;;;;;;9.40;5.60;;;3.80;99.90;;;;;;4971313;28;20257;-60
2021/11/16 04:44:19;;;;;;;9.57;5.47;;;3.80;99.90;;;;;;4972092;28;20170;-59
2021/11/16 04:46:45;;;;;;;10.17;5.63;;;3.80;99.90;;;;;;4967499;28;20442;-60
2021/11/16 05:04:44;;;;;;;12.80;5.70;;;3.80;99.90;;;;;;4968623;28;20549;-59
2021/11/16 05:07:14;;;;;;;10.20;5.13;;;3.80;99.90;;;;;;4966456;28;20447;-57
2021/11/16 05:09:40;;;;;;;8.17;4.97;;;3.80;99.90;;;;;;4959760;28;20975;-58
2021/11/16 05:12:07;;;;;;;8.20;4.70;;;3.80;99.90;;;;;;4960633;28;20669;-59
2021/11/16 05:14:32;;;;;;;10.53;5.30;;;3.80;99.90;;;;;;4958613;28;20215;-61
2021/11/16 05:16:58;;;;;;;9.00;4.70;;;3.80;99.90;;;;;;4963059;28;20458;-60
2021/11/16 05:19:24;;;;;;;9.30;5.27;;;3.80;99.90;;;;;;4970775;28;20208;-58
2021/11/16 05:21:50;;;;;;;10.23;5.00;;;3.80;99.90;;;;;;4970096;28;20166;-59
2021/11/16 05:24:16;;;;;;;8.90;4.60;;;3.80;99.90;;;;;;4966493;28;20182;-59
2021/11/16 05:26:44;;;;;;;10.33;5.13;;;3.80;99.90;;;;;;4967559;28;20437;-60
2021/11/16 05:29:10;;;;;;;7.57;4.83;;;3.80;99.90;;;;;;4958710;28;20198;-61
2021/11/16 05:31:35;;;;;;;10.13;5.10;;;3.80;99.90;;;;;;4966663;28;20434;-59
2021/11/16 05:34:01;;;;;;;9.00;5.47;;;3.80;99.90;;;;;;4964114;28;20441;-60
2021/11/16 05:36:27;;;;;;;9.80;5.07;;;3.80;99.90;;;;;;4967753;28;20273;-61
2021/11/16 05:38:53;;;;;;;8.80;5.00;;;3.80;99.90;;;;;;4970718;28;20260;-60
2021/11/16 05:41:19;;;;;;;10.53;5.17;;;3.80;99.90;;;;;;4963353;28;20201;-60
2021/11/16 05:43:47;;;;;;;8.83;4.87;;;3.70;99.90;;;;;;4961551;28;20946;-62
2021/11/16 05:46:18;;;;;;;10.43;5.93;;;3.80;99.90;;;;;;4966220;28;20469;-61
2021/11/16 05:48:44;;;;;;;10.97;5.90;;;3.70;99.90;;;;;;4961941;28;20441;-54
2021/11/16 05:51:10;;;;;;;10.90;6.17;;;3.70;99.90;;;;;;4965904;28;21325;-60
2021/11/16 05:53:37;;;;;;;9.20;4.90;;;3.70;99.90;;;;;;4963811;28;20173;-56
2021/11/16 05:56:04;;;;;;;7.27;4.87;;;3.70;99.90;;;;;;4969326;28;20794;-60
2021/11/16 05:58:30;;;;;;;10.50;5.90;;;3.70;99.90;;;;;;4962199;28;20449;-60
2021/11/16 06:00:56;;;;;;;10.73;6.33;;;3.70;99.90;;;;;;4962346;28;20471;-60
2021/11/16 06:03:21;;;;;;;11.13;5.77;;;3.60;99.90;;;;;;4963083;28;20178;-60
2021/11/16 06:05:47;;;;;;;9.40;5.83;;;3.60;99.90;;;;;;4966931;28;20374;-59
2021/11/16 06:08:21;;;;;;;11.77;5.70;;;3.60;99.90;;;;;;4965165;28;20173;-60
2021/11/16 06:10:46;;;;;;;12.00;5.70;;;3.60;99.90;;;;;;4968304;28;20288;-60
2021/11/16 06:13:12;;;;;;;9.73;5.73;;;3.60;99.90;;;;;;4976171;28;20498;-59
2021/11/16 06:15:38;;;;;;;9.73;5.83;;;3.70;99.90;;;;;;4969633;28;20225;-61
2021/11/16 06:18:04;;;;;;;11.50;5.70;;;3.60;99.90;;;;;;4951761;28;20716;-60
2021/11/16 06:20:31;;;;;;;11.43;5.80;;;3.60;99.90;;;;;;4950011;28;20560;-60
2021/11/16 06:22:57;;;;;;;12.13;6.00;;;3.70;99.90;;;;;;4951824;28;20218;-58
2021/11/16 06:25:23;;;;;;;10.30;6.07;;;3.70;99.90;;;;;;4952536;28;20472;-59
2021/11/16 06:27:49;;;;;;;10.97;6.40;;;3.70;99.90;;;;;;4969077;28;20425;-58
2021/11/16 06:30:15;;;;;;;10.23;5.90;;;3.70;99.90;;;;;;4965983;28;20769;-57
2021/11/16 06:32:41;;;;;;;10.40;6.53;;;3.70;99.90;;;;;;4950794;28;20780;-59
2021/11/16 06:35:14;;;;;;;9.50;4.90;;;3.70;99.90;;;;;;4954502;28;20527;-60
2021/11/16 06:37:39;;;;;;;9.27;4.90;;;3.70;99.90;;;;;;4951863;29;20406;-59
2021/11/16 06:40:06;;;;;;;9.00;5.60;;;3.70;99.90;;;;;;4951911;28;20465;-61
2021/11/16 06:42:31;;;;;;;13.50;6.30;;;3.70;99.90;;;;;;4969929;28;20208;-60
2021/11/16 06:44:58;;;;;;;8.53;5.30;;;3.70;99.90;;;;;;4953356;28;20868;-60
2021/11/16 06:47:24;;;;;;;12.20;6.43;;;3.70;99.90;;;;;;4959025;28;20348;-59
2021/11/16 06:49:51;;;;;;;9.70;5.70;;;3.70;99.90;;;;;;4950264;28;20434;-61
2021/11/16 06:52:18;;;;;;;13.13;6.87;;;3.70;99.90;;;;;;4967751;28;20178;-58
2021/11/16 06:54:45;;;;;;;13.00;7.37;;;3.70;99.90;;;;;;4980204;28;20427;-60
2021/11/16 06:57:12;;;;;;;14.30;6.83;;;3.60;99.90;;;;;;4969780;28;20421;-60
2021/11/16 06:59:39;;;;;;;13.93;6.67;;;3.60;99.90;;;;;;4959209;28;20457;-58
2021/11/16 07:02:05;;;;;;;9.83;6.07;;;3.60;99.90;;;;;;4954592;28;20429;-61
2021/11/16 07:04:41;;;;;;;8.50;5.20;;;3.60;99.90;;;;;;4966167;28;20421;-60
2021/11/16 07:07:08;;;;;;;9.13;5.40;;;3.70;99.90;;;;;;4967682;28;20413;-61
2021/11/16 07:09:39;;;;;;;12.80;5.00;;;3.60;99.90;;;;;;4966933;28;20785;-60
2021/11/16 07:12:17;;;;;;;6.80;4.40;;;3.60;99.90;;;;;;4957067;28;20481;-59
2021/11/16 07:14:44;;;;;;;7.17;4.67;;;3.70;99.90;;;;;;4960979;28;20428;-60
2021/11/16 07:17:15;;;;;;;7.83;4.70;;;3.70;99.90;;;;;;4969904;28;20461;-59
2021/11/16 07:19:47;;;;;;;7.57;4.80;;;3.70;99.90;;;;;;4970047;28;20550;-57
2021/11/16 07:22:18;;;;;;;6.63;4.20;;;3.80;99.90;;;;;;4959343;28;20436;-60
2021/11/16 07:24:50;;;;;;;9.07;4.77;;;3.80;99.90;;;;;;4969223;28;20463;-60
2021/11/16 07:27:18;;;;;;;8.20;4.67;;;3.80;99.90;;;;;;4970772;28;20821;-59
2021/11/16 07:29:53;;;;;;;9.10;5.20;;;3.80;99.90;;;;;;4980478;28;20454;-60
2021/11/16 07:32:24;;;;;;;8.43;4.70;;;3.80;99.90;;;;;;4990149;28;20418;-60
2021/11/16 07:34:51;;;;;;;9.37;4.57;;;3.80;99.90;;;;;;4979527;28;20421;-63
2021/11/16 07:37:20;;;;;;;9.17;4.83;;;3.80;99.90;;;;;;4970538;28;20444;-58
2021/11/16 07:39:46;;;;;;;7.20;4.37;;;3.80;99.90;;;;;;4968024;28;20937;-60
2021/11/16 07:42:12;;;;;;;5.67;4.03;;;3.80;99.90;;;;;;4969422;28;20489;-61
2021/11/16 07:44:38;;;;;;;5.10;3.10;;;3.80;99.90;;;;;;4973660;28;20218;-58
2021/11/16 07:47:05;;;;;;;4.70;3.30;;;3.70;99.90;;;;;;4973827;28;20512;-60
2021/11/16 07:49:31;;;;;;;5.43;3.20;;;3.70;99.90;;;;;;4955035;28;20615;-59
2021/11/16 07:51:57;;;;;;;5.20;3.50;;;3.80;99.90;;;;;;4965761;28;20409;-59
2021/11/16 07:54:29;;;;;;;3.73;3.10;;;3.80;99.90;;;;;;4963672;28;20417;-60
2021/11/16 07:57:05;;;;;;;3.77;3.03;;;3.80;99.90;;;;;;4966245;28;20495;-60
2021/11/16 07:59:33;;;;;;;3.50;2.87;;;3.70;99.90;;;;;;4954462;28;20980;-59
2021/11/16 08:02:02;;;;;;;5.53;3.50;;;3.70;99.90;;;;;;4967272;28;20421;-59
2021/11/16 08:04:37;;;;;;;7.00;4.80;;;3.80;99.90;;;;;;4977741;28;20436;-61
2021/11/16 08:07:15;;;;;;;4.97;3.57;;;3.80;99.90;;;;;;4977361;28;20404;-60
2021/11/16 08:09:46;;;;;;;3.43;2.83;;;3.80;99.90;;;;;;4967395;28;20625;-59
2021/11/16 08:12:31;;;;;;;4.10;2.60;;;3.80;99.90;;;;;;4954213;28;20451;-59
2021/11/16 08:15:09;;;;;;;4.40;2.97;;;3.90;99.90;;;;;;4971030;28;20409;-60
2021/11/16 08:17:36;;;;;;;4.93;3.50;;;3.90;99.90;;;;;;4972570;28;20432;-60
2021/11/16 08:20:12;;;;;;;9.67;3.67;;;4.00;99.90;;;;;;4974048;28;20523;-58
2021/11/16 08:22:38;;;;;;;6.20;3.67;;;4.00;99.90;;;;;;4973332;28;20429;-60
2021/11/16 08:25:05;;;;;;;6.00;3.67;;;4.00;99.90;;;;;;4972465;28;20441;-59
2021/11/16 08:27:35;;;;;;;5.30;3.47;;;4.00;99.90;;;;;;4961724;28;20438;-60
2021/11/16 08:30:06;;;;;;;7.80;3.43;;;4.00;99.90;;;;;;4953512;29;20786;-60
2021/11/16 08:32:38;;;;;;;6.03;4.10;;;4.10;99.90;;;;;;4953702;29;20391;-60
2021/11/16 08:35:11;;;;;;;6.90;3.80;;;4.20;99.90;;;;;;4952865;28;20429;-60
2021/11/16 08:37:38;;;;;;;4.93;3.63;;;4.20;99.90;;;;;;4962688;28;20517;-60
2021/11/16 08:40:33;;;;;;;5.70;3.80;;;4.20;99.90;;;;;;4969708;28;20474;-60
2021/11/16 08:43:01;;;;;;;5.73;3.67;;;4.20;99.90;;;;;;4968107;28;20449;-61
2021/11/16 08:45:30;;;;;;;10.40;3.33;;;4.20;99.90;;;;;;4954513;28;20836;-61
2021/11/16 08:48:06;;;;;;;6.33;3.90;;;4.20;99.90;;;;;;4952182;28;20422;-61
2021/11/16 08:50:47;;;;;;;5.53;3.87;;;4.30;99.90;;;;;;4964158;28;20410;-60
2021/11/16 08:53:20;;;;;;;3.93;3.43;;;4.30;99.90;;;;;;4973738;28;20432;-60
2021/11/16 08:55:47;;;;;;;6.33;4.30;;;4.30;99.90;;;;;;4977277;28;20404;-60
2021/11/16 08:58:14;;;;;;;4.70;3.40;;;4.30;99.90;;;;;;4971019;28;20479;-61
2021/11/16 09:00:45;;;;;;;7.90;3.50;;;4.40;99.90;;;;;;4966793;28;20465;-61
2021/11/16 09:03:16;;;;;;;5.97;3.97;;;4.40;99.90;;;;;;4953713;28;20426;-59
2021/11/16 09:05:45;;;;;;;6.23;4.17;;;4.40;99.90;;;;;;4953020;29;20950;-60
2021/11/16 09:08:31;;;;;;;4.67;3.37;;;4.40;99.90;;;;;;4966832;28;20797;-60
2021/11/16 09:11:14;;;;;;;4.23;3.10;;;4.50;99.90;;;;;;4953954;28;20434;-60
2021/11/16 09:13:41;;;;;;;5.20;3.37;;;4.50;99.90;;;;;;4955458;28;20471;-61
2021/11/16 09:16:28;;;;;;;6.30;3.90;;;4.50;99.90;;;;;;4970753;28;20428;-61
2021/11/16 09:18:54;;;;;;;5.33;3.30;;;4.50;99.90;;;;;;4964866;28;20453;-61
2021/11/16 09:21:25;;;;;;;7.27;3.90;;;4.50;99.90;;;;;;4961355;28;20437;-61
2021/11/16 09:24:02;;;;;;;5.30;3.57;;;4.50;99.90;;;;;;4955758;28;20456;-61
2021/11/16 09:29:11;;;;;;;7.33;4.47;;;4.50;99.90;;;;;;4979524;28;20441;-61
2021/11/16 09:31:42;;;;;;;7.73;4.07;;;4.50;99.90;;;;;;4952616;28;20488;-60
2021/11/16 09:34:16;;;;;;;6.63;4.17;;;4.50;99.90;;;;;;4970765;28;20505;-61
2021/11/16 09:37:07;;;;;;;5.43;3.87;;;4.50;99.90;;;;;;4971988;28;20425;-61
2021/11/16 09:39:52;;;;;;;4.73;3.47;;;4.50;99.90;;;;;;4962673;28;20508;-59
2021/11/16 09:42:25;;;;;;;8.63;4.47;;;4.50;99.90;;;;;;4952689;29;20420;-61
2021/11/16 09:44:54;;;;;;;8.17;3.80;;;4.60;99.90;;;;;;4950760;28;20434;-58
2021/11/16 09:47:27;;;;;;;4.43;3.20;;;4.60;99.90;;;;;;4952352;28;20489;-60
2021/11/16 09:50:02;;;;;;;6.03;4.00;;;4.60;99.90;;;;;;4955459;28;20460;-61
2021/11/16 09:52:46;;;;;;;5.40;3.50;;;4.60;99.90;;;;;;4970997;28;20827;-60
2021/11/16 09:55:20;;;;;;;5.53;3.33;;;4.60;99.90;;;;;;4972162;28;20398;-61
2021/11/16 09:57:52;;;;;;;5.00;3.40;;;4.60;99.90;;;;;;4963434;28;20438;-60
2021/11/16 10:00:39;;;;;;;8.10;3.40;;;4.60;99.90;;;;;;4952047;29;20460;-60
2021/11/16 10:03:13;;;;;;;5.37;3.60;;;4.60;99.90;;;;;;4951007;28;20422;-60
2021/11/16 10:05:44;;;;;;;5.33;3.53;;;4.60;99.90;;;;;;4959656;28;20792;-60
2021/11/16 10:08:11;;;;;;;5.70;3.43;;;4.60;99.90;;;;;;4966709;28;20699;-61
2021/11/16 10:10:40;;;;;;;6.00;3.60;;;4.60;99.90;;;;;;4970512;28;20540;-61
2021/11/16 10:13:15;;;;;;;4.70;3.60;;;4.70;99.90;;;;;;4978426;28;20903;-61
2021/11/16 10:15:49;;;;;;;5.57;3.20;;;4.70;99.90;;;;;;4976556;28;20411;-60
2021/11/16 10:18:18;;;;;;;6.53;3.90;;;4.70;99.90;;;;;;4981425;28;20748;-61
2021/11/16 10:20:46;;;;;;;5.77;3.70;;;4.60;99.90;;;;;;4971629;28;20500;-61
2021/11/16 10:23:18;;;;;;;5.17;3.60;;;4.70;99.90;;;;;;4967471;28;20523;-60
2021/11/16 10:25:55;;;;;;;5.27;3.30;;;4.70;99.90;;;;;;4960114;28;20428;-61
2021/11/16 10:28:23;;;;;;;4.70;3.40;;;4.70;99.90;;;;;;4963559;28;20429;-61
2021/11/16 10:30:49;;;;;;;4.67;3.13;;;4.80;99.90;;;;;;4967126;28;20406;-60
2021/11/16 10:33:14;;;;;;;3.77;3.10;;;4.80;99.90;;;;;;4959566;28;21033;-60
2021/11/16 10:35:46;;;;;;;5.10;3.30;;;4.80;99.90;;;;;;4966166;28;20429;-61
2021/11/16 10:38:15;;;;;;;4.10;2.90;;;4.90;99.90;;;;;;4976027;28;20185;-58
2021/11/16 10:40:41;;;;;;;6.60;3.47;;;4.90;99.90;;;;;;4960248;28;20468;-60
2021/11/16 10:43:09;;;;;;;3.50;3.00;;;4.90;99.90;;;;;;4962020;28;20437;-60
2021/11/16 10:45:39;;;;;;;5.50;3.00;;;4.80;99.90;;;;;;4965707;28;20818;-59
2021/11/16 10:48:09;;;;;;;5.07;3.23;;;4.90;99.90;;;;;;4972640;28;20445;-61
2021/11/16 10:50:36;;;;;;;5.93;3.30;;;4.80;99.90;;;;;;4973117;28;20439;-61
2021/11/16 10:53:21;;;;;;;4.20;3.10;;;4.90;99.90;;;;;;4972188;28;20451;-61
2021/11/16 10:55:58;;;;;;;4.67;3.37;;;4.90;99.90;;;;;;4969782;28;20417;-60
2021/11/16 10:58:46;;;;;;;6.63;3.67;;;4.90;99.90;;;;;;4974936;28;20435;-61
2021/11/16 11:01:15;;;;;;;6.30;3.80;;;4.90;99.90;;;;;;4961549;28;20668;-61
2021/11/16 11:03:44;;;;;;;5.70;3.47;;;5.00;99.90;;;;;;4967644;28;20464;-57
2021/11/16 11:06:20;;;;;;;4.60;3.47;;;5.00;99.90;;;;;;4966282;28;20862;-60
2021/11/16 11:08:51;;;;;;;6.90;4.50;;;5.00;99.90;;;;;;4960212;28;20654;-58
2021/11/16 11:11:19;;;;;;;10.40;4.77;;;5.00;99.90;;;;;;4978807;28;20434;-61
2021/11/16 11:13:47;;;;;;;12.87;5.00;;;5.00;99.90;;;;;;4964648;28;20500;-62
2021/11/16 11:16:14;;;;;;;11.43;6.53;;;5.00;99.90;;;;;;4963732;28;20429;-61
2021/11/16 11:18:43;;;;;;;6.70;4.20;;;5.10;99.90;;;;;;4967230;28;20457;-60
2021/11/16 11:21:24;;;;;;;5.43;3.60;;;5.10;99.90;;;;;;4965919;28;20476;-60
2021/11/16 11:23:54;;;;;;;5.77;3.83;;;5.10;99.90;;;;;;4966403;28;20918;-61
2021/11/16 11:26:38;;;;;;;9.63;5.67;;;5.20;99.90;;;;;;4970060;28;20448;-61
2021/11/16 11:29:36;;;;;;;6.90;3.97;;;5.20;99.90;;;;;;4964038;28;20544;-61
2021/11/16 11:32:05;;;;;;;4.90;3.33;;;5.10;99.90;;;;;;4968344;28;20421;-59
2021/11/16 11:35:03;;;;;;;5.00;3.20;;;5.10;99.90;;;;;;4976494;28;20436;-60
2021/11/16 11:37:36;;;;;;;4.47;3.40;;;5.10;99.90;;;;;;4958774;28;20441;-61
2021/11/16 11:40:20;;;;;;;6.60;3.77;;;5.10;99.90;;;;;;4957529;28;20875;-60
2021/11/16 11:42:58;;;;;;;4.40;3.40;;;5.10;99.90;;;;;;4965548;28;20435;-60
2021/11/16 11:45:33;;;;;;;3.80;3.43;;;5.00;99.90;;;;;;4961173;28;20438;-61
2021/11/16 11:48:04;;;;;;;5.10;3.70;;;5.00;99.90;;;;;;4974325;28;20434;-59
2021/11/16 11:50:37;;;;;;;5.73;3.70;;;5.00;99.90;;;;;;4969075;28;20475;-61
2021/11/16 11:53:05;;;;;;;7.90;4.40;;;5.00;99.90;;;;;;4971516;28;20843;-61
2021/11/16 11:55:38;;;;;;;6.27;4.00;;;5.10;99.90;;;;;;4971924;28;20874;-61
2021/11/16 11:58:05;;;;;;;5.20;3.73;;;5.10;99.90;;;;;;4974853;28;20417;-60
2021/11/16 12:00:32;;;;;;;4.37;3.30;;;5.10;99.90;;;;;;4979285;28;20471;-61
2021/11/16 12:02:59;;;;;;;7.80;3.77;;;5.10;99.90;;;;;;4962709;28;20436;-59
2021/11/16 12:05:30;;;;;;;6.23;3.77;;;5.20;99.90;;;;;;4972242;28;20912;-58
2021/11/16 12:07:56;;;;;;;7.80;4.53;;;5.10;99.90;;;;;;4974851;28;20997;-60
2021/11/16 12:10:21;;;;;;;5.23;4.00;;;5.20;99.90;;;;;;4976639;28;20532;-61
2021/11/16 12:12:49;;;;;;;6.80;4.40;;;5.20;99.90;;;;;;4976120;28;20439;-60
2021/11/16 12:15:25;;;;;;;8.37;3.90;;;5.10;99.90;;;;;;4967745;28;20189;-61
2021/11/16 12:17:54;;;;;;;3.57;3.27;;;5.10;99.90;;;;;;4975307;28;20949;-60
2021/11/16 12:20:38;;;;;;;5.50;3.97;;;5.10;99.90;;;;;;4976154;28;20893;-61
2021/11/16 12:23:13;;;;;;;6.50;4.07;;;5.10;99.90;;;;;;4975797;28;20505;-61
2021/11/16 12:25:41;;;;;;;5.23;3.80;;;5.10;99.90;;;;;;4980910;28;20424;-60
2021/11/16 12:28:26;;;;;;;5.67;3.77;;;5.10;99.90;;;;;;4967216;28;20962;-61
2021/11/16 12:30:52;;;;;;;5.23;3.97;;;5.10;99.90;;;;;;4966071;28;20420;-59
2021/11/16 12:33:40;;;;;;;5.93;3.70;;;5.10;99.90;;;;;;4974177;28;20424;-57
2021/11/16 12:36:07;;;;;;;5.43;3.60;;;5.10;99.90;;;;;;4964200;28;20485;-60
2021/11/16 12:38:39;;;;;;;8.27;4.57;;;5.10;99.90;;;;;;4973169;28;20817;-59
2021/11/16 12:41:27;;;;;;;5.30;3.67;;;5.00;99.90;;;;;;4971744;28;20461;-59
2021/11/16 12:43:53;;;;;;;4.70;3.77;;;5.00;99.90;;;;;;4972829;28;20421;-57
2021/11/16 12:46:20;;;;;;;4.80;3.47;;;5.00;99.90;;;;;;4966153;28;20496;-61
2021/11/16 12:48:56;;;;;;;8.20;3.93;;;5.00;99.90;;;;;;4972395;28;20485;-60
2021/11/16 12:51:31;;;;;;;5.37;3.80;;;5.00;99.90;;;;;;4974625;28;20424;-60
2021/11/16 12:54:07;;;;;;;6.37;4.30;;;5.00;99.90;;;;;;4973052;28;20539;-59
2021/11/16 12:56:42;;;;;;;6.53;4.07;;;5.00;99.90;;;;;;4964836;28;20471;-59
2021/11/16 12:59:13;;;;;;;5.90;4.20;;;5.00;99.90;;;;;;4978078;28;20432;-60
2021/11/16 13:01:44;;;;;;;6.63;4.30;;;5.00;99.90;;;;;;4972484;28;20601;-61
2021/11/16 13:04:13;;;;;;;6.73;4.70;;;5.00;99.90;;;;;;4968752;28;20437;-60
2021/11/16 13:06:42;;;;;;;7.67;5.17;;;5.00;99.90;;;;;;4976073;28;20969;-58
2021/11/16 13:09:11;;;;;;;7.13;5.20;;;5.00;99.90;;;;;;4975319;28;20473;-60
2021/11/16 13:11:44;;;;;;;6.27;4.27;;;5.00;99.90;;;;;;4959002;28;20878;-60
2021/11/16 13:14:12;;;;;;;6.47;4.77;;;5.00;99.90;;;;;;4968405;28;21140;-59
2021/11/16 13:16:39;;;;;;;8.50;4.90;;;5.00;99.90;;;;;;4961876;28;20905;-59
2021/11/16 13:19:05;;;;;;;6.87;4.37;;;5.00;99.90;;;;;;4975527;28;20460;-60
2021/11/16 13:21:39;;;;;;;6.80;4.57;;;5.00;99.90;;;;;;4968854;28;20432;-59